Time;durP1;ratioP1;P1;durP2;ratioP2;P2;SDS_P1;SDS_P2;PMS_P1;PMS_P2;Temp;Humidity;BMP_temperature;BMP_pressure;BME280_temperature;BME280_humidity;BME280_pressure;Samples;Min_cycle;Max_cycle;Signal;HPM_P1;HPM_P2
2022/12/05 00:01:22;;;;;;;18.55;10.98;;;;;;;;;;5034167;28;20036;-87
2022/12/05 00:03:47;;;;;;;;;;;;;;;;;;5033533;28;20655;-86
2022/12/05 00:06:12;;;;;;;20.75;11.13;;;;;;;;;;5031452;28;20534;-84
2022/12/05 00:08:38;;;;;;;20.95;11.65;;;;;;;;;;5035459;28;20646;-85
2022/12/05 00:11:03;;;;;;;25.60;12.10;;;;;;;3.15;nan;100003.72;5033434;28;20033;-86
2022/12/05 00:13:28;;;;;;;19.73;11.25;;;;;;;;;;5033970;28;20321;-86
2022/12/05 00:15:54;;;;;;;22.20;11.98;;;;;;;;;;5032970;28;20038;-86
2022/12/05 00:18:19;;;;;;;30.73;17.47;;;;;;;;;;5030592;28;20026;-86
2022/12/05 00:20:45;;;;;;;29.33;15.53;;;;;;;;;;5032784;28;20276;-86
2022/12/05 00:23:10;;;;;;;23.58;13.40;;;;;;;22.39;100.00;53000.19;5033672;28;20429;-86
2022/12/05 00:25:35;;;;;;;24.73;14.05;;;;;;;;;;5035072;28;20064;-86
2022/12/05 00:28:01;;;;;;;22.58;12.93;;;;;;;;;;5034637;28;20128;-86
2022/12/05 00:30:26;;;;;;;23.57;13.33;;;;;;;;;;5034353;28;20539;-86
2022/12/05 00:32:51;;;;;;;26.05;14.05;;;;;;;;;;5033660;28;20292;-87
2022/12/05 00:35:16;;;;;;;25.77;14.03;;;;;;;;;;5033464;28;20060;-86
2022/12/05 00:37:42;;;;;;;24.37;13.07;;;;;;;;;;5034272;28;20280;-86
2022/12/05 00:40:07;;;;;;;23.80;12.77;;;;;;;;;;5033104;28;20075;-87
2022/12/05 00:42:32;;;;;;;27.65;16.27;;;;;;;;;;5033065;28;20138;-87
2022/12/05 00:44:57;;;;;;;26.63;14.33;;;;;;;;;;5026879;28;20051;-87
2022/12/05 00:47:22;;;;;;;25.70;13.90;;;;;;;;;;5027298;28;20030;-88
2022/12/05 00:49:48;;;;;;;21.27;11.23;;;;;;;;;;5027171;28;20175;-87
2022/12/05 00:52:13;;;;;;;22.50;11.73;;;;;;;;;;5026391;28;20056;-87
2022/12/05 00:54:38;;;;;;;19.50;10.20;;;;;;;;;;5029177;28;20038;-87
2022/12/05 00:57:03;;;;;;;15.87;9.50;;;;;;;;;;5030510;28;20120;-87
2022/12/05 00:59:28;;;;;;;18.30;10.43;;;;;;;;;;5030779;28;20029;-88
2022/12/05 01:01:53;;;;;;;20.63;11.53;;;;;;;;;;5032548;28;20087;-87
2022/12/05 01:04:20;;;;;;;19.60;11.00;;;;;;;;;;5033989;28;20029;-87
2022/12/05 01:06:45;;;;;;;21.40;11.82;;;;;;;;;;5034465;28;20044;-87
2022/12/05 01:09:12;;;;;;;23.33;12.97;;;;;;;;;;5032880;28;20423;-87
2022/12/05 01:11:37;;;;;;;19.65;11.10;;;;;;;;;;5031458;28;20288;-87
2022/12/05 01:14:03;;;;;;;22.63;11.43;;;;;;;;;;5032137;28;20509;-87
2022/12/05 01:16:33;;;;;;;20.77;10.88;;;;;;;;;;5030107;28;20049;-87
2022/12/05 01:18:59;;;;;;;19.93;10.97;;;;;;;;;;5030873;28;20224;-87
2022/12/05 01:21:25;;;;;;;20.30;10.55;;;;;;;;;;5030515;28;20033;-88
2022/12/05 01:23:50;;;;;;;20.25;11.07;;;;;;;;;;5030767;28;20083;-87
2022/12/05 01:26:17;;;;;;;19.52;9.95;;;;;;;;;;5031481;28;20041;-87
2022/12/05 01:28:43;;;;;;;18.05;8.95;;;;;;;;;;5032004;28;20037;-87
2022/12/05 01:31:13;;;;;;;17.00;9.43;;;;;;;;;;5030140;28;20036;-89
2022/12/05 01:33:38;;;;;;;15.32;8.05;;;;;;;;;;5030595;28;20037;-87
2022/12/05 01:36:03;;;;;;;17.00;8.90;;;;;;;;;;5034596;28;20036;-88
2022/12/05 01:38:29;;;;;;;17.88;9.02;;;;;;;;;;5047002;28;20030;-87
2022/12/05 01:41:04;;;;;;;13.95;7.53;;;;;;;;;;5036705;28;20048;-86
2022/12/05 01:43:29;;;;;;;17.42;8.85;;;;;;;;;;5038190;28;20033;-86
2022/12/05 01:45:55;;;;;;;13.67;7.93;;;;;;;;;;5037891;28;20093;-86
2022/12/05 01:48:22;;;;;;;16.73;8.73;;;;;;;;;;5036549;28;20033;-86
2022/12/05 01:50:48;;;;;;;17.10;9.30;;;;;;;;;;5038085;28;20061;-86
2022/12/05 01:53:15;;;;;;;16.67;8.80;;;;;;;;;;5035163;28;20569;-86
2022/12/05 01:55:40;;;;;;;14.38;8.70;;;;;;;;;;5035309;28;20029;-86
2022/12/05 01:58:07;;;;;;;20.30;10.05;;;;;;;;;;5035238;28;20048;-86
2022/12/05 02:00:32;;;;;;;19.77;9.70;;;;;;;;;;5035831;28;20112;-86
2022/12/05 02:03:01;;;;;;;15.40;8.50;;;;;;;;;;5032195;28;20095;-86
2022/12/05 02:05:34;;;;;;;13.98;7.55;;;;;;;;;;5030203;28;20040;-86
2022/12/05 02:08:00;;;;;;;14.23;8.07;;;;;;;;;;5030420;28;20041;-86
2022/12/05 02:10:27;;;;;;;26.83;12.07;;;;;;;;;;5030988;28;20045;-87
2022/12/05 02:12:52;;;;;;;22.70;11.23;;;;;;;;;;5031364;28;20037;-88
2022/12/05 02:15:36;;;;;;;21.05;9.90;;;;;;;;;;5030190;28;20045;-87
2022/12/05 02:18:12;;;;;;;21.05;11.02;;;;;;;;;;5038046;28;20025;-86
2022/12/05 02:20:44;;;;;;;24.00;11.63;;;;;;;;;;5040964;28;20037;-86
2022/12/05 02:23:21;;;;;;;25.83;11.85;;;;;;;;;;5041038;28;20044;-85
2022/12/05 02:26:05;;;;;;;26.30;13.05;;;;;;;;;;5042592;28;20041;-85
2022/12/05 02:28:30;;;;;;;30.25;14.52;;;;;;;;;;5040220;28;20045;-86
2022/12/05 02:30:55;;;;;;;27.37;13.27;;;;;;;;;;5036008;28;20523;-87
2022/12/05 02:33:25;;;;;;;24.13;12.75;;;;;;;;;;5030911;28;20032;-88
2022/12/05 02:35:54;;;;;;;22.50;11.65;;;;;;;;;;5029500;28;20037;-87
2022/12/05 02:38:25;;;;;;;24.80;12.80;;;;;;;;;;5029163;28;20061;-87
2022/12/05 02:40:50;;;;;;;;;;;;;;;;;;5029590;28;20064;-88
2022/12/05 02:43:21;;;;;;;33.67;15.93;;;;;;;;;;5029127;28;19956;-87
2022/12/05 02:45:48;;;;;;;33.53;15.55;;;;;;;;;;5029401;28;20440;-87
2022/12/05 02:48:14;;;;;;;37.45;17.13;;;;;;;;;;5028627;28;20056;-87
2022/12/05 02:50:41;;;;;;;34.83;15.77;;;;;;;;;;5029121;28;20033;-87
2022/12/05 02:53:09;;;;;;;31.50;14.52;;;;;;;;;;5029000;28;20045;-87
2022/12/05 02:55:35;;;;;;;29.60;14.20;;;;;;;;;;5034949;28;20117;-87
2022/12/05 02:58:02;;;;;;;31.85;13.75;;;;;;;;;;5036433;28;20092;-86
2022/12/05 03:00:27;;;;;;;32.95;14.88;;;;;;;;;;5035041;28;20087;-86
2022/12/05 03:02:54;;;;;;;35.53;15.10;;;;;;;;;;5033938;28;20045;-86
2022/12/05 03:05:33;;;;;;;40.55;16.90;;;;;;;;;;5034833;28;20060;-86
2022/12/05 03:08:01;;;;;;;41.25;16.98;;;;;;;;;;5035179;28;20041;-87
2022/12/05 03:10:28;;;;;;;35.90;17.23;;;;;;;;;;5030620;28;20041;-86
2022/12/05 03:12:55;;;;;;;33.78;16.23;;;;;;;;;;5030042;28;20053;-87
2022/12/05 03:15:24;;;;;;;53.42;20.52;;;;;;;;;;5029189;28;20443;-88
2022/12/05 03:17:52;;;;;;;55.20;20.92;;;;;;;;;;5028317;28;20117;-87
2022/12/05 03:20:20;;;;;;;48.50;20.67;;;;;;;;;;5028523;28;20086;-87
2022/12/05 03:22:48;;;;;;;53.95;20.80;;;;;;;;;;5030311;28;20037;-87
2022/12/05 03:25:14;;;;;;;45.25;19.08;;;;;;;;;;5030531;28;20041;-87
2022/12/05 03:27:39;;;;;;;50.22;21.23;;;;;;;;;;5028360;28;20083;-87
2022/12/05 03:30:07;;;;;;;44.97;20.63;;;;;;;;;;5028282;28;20382;-87
2022/12/05 03:32:48;;;;;;;55.28;21.52;;;;;;;;;;5029554;28;20025;-87
2022/12/05 03:35:16;;;;;;;40.10;18.73;;;;;;;;;;5020673;28;20030;-89
2022/12/05 03:37:52;;;;;;;48.55;21.42;;;;;;;;;;5030230;28;20082;-87
2022/12/05 03:40:17;;;;;;;49.75;21.33;;;;;;;;;;5029204;28;20041;-89
2022/12/05 03:42:49;;;;;;;60.97;23.60;;;;;;;;;;5030078;28;20121;-87
2022/12/05 03:45:16;;;;;;;50.17;22.48;;;;;;;;;;5030965;28;20033;-87
2022/12/05 03:47:46;;;;;;;55.28;22.85;;;;;;;;;;5029236;28;20040;-87
2022/12/05 03:50:22;;;;;;;59.20;23.20;;;;;;;;;;5022326;28;20033;-87
2022/12/05 03:52:51;;;;;;;51.67;21.77;;;;;;;;;;5030477;28;20662;-87
2022/12/05 03:55:17;;;;;;;53.17;21.67;;;;;;;;;;5028285;28;20037;-86
2022/12/05 03:57:44;;;;;;;56.55;23.27;;;;;;;;;;5028539;28;20037;-87
2022/12/05 04:00:14;;;;;;;63.80;23.55;;;;;;;;;;5030637;28;20511;-86
2022/12/05 04:02:44;;;;;;;56.75;23.27;;;;;;;;;;5037265;28;20033;-86
2022/12/05 04:05:14;;;;;;;54.33;21.93;;;;;;;;;;5037267;28;20484;-86
2022/12/05 04:07:40;;;;;;;50.65;21.42;;;;;;;;;;5038501;28;20089;-86
2022/12/05 04:10:09;;;;;;;54.50;21.30;;;;;;;;;;5035078;28;20492;-86
2022/12/05 04:12:35;;;;;;;50.67;20.42;;;;;;;;;;5034771;28;20033;-86
2022/12/05 04:15:13;;;;;;;57.25;22.17;;;;;;;;;;5035560;28;20042;-86
2022/12/05 04:17:45;;;;;;;54.20;23.27;;;;;;;;;;5033553;28;20030;-87
2022/12/05 04:23:00;;;;;;;47.95;20.65;;;;;;;;;;5032094;28;20116;-87
2022/12/05 04:25:32;;;;;;;45.80;19.50;;;;;;;;;;5034351;28;20073;-85
2022/12/05 04:28:03;;;;;;;50.90;21.20;;;;;;;;;;5032909;28;20281;-85
2022/12/05 04:30:38;;;;;;;40.88;18.80;;;;;;;;;;5033120;28;20431;-85
2022/12/05 04:33:06;;;;;;;49.75;20.88;;;;;;;;;;5031663;28;20404;-87
2022/12/05 04:35:34;;;;;;;46.42;19.10;;;;;;;;;;5028441;28;20029;-87
2022/12/05 04:38:05;;;;;;;43.08;19.15;;;;;;;;;;5027373;28;20485;-87
2022/12/05 04:40:40;;;;;;;45.25;18.45;;;;;;;;;;5027098;28;20509;-87
2022/12/05 04:43:06;;;;;;;37.90;17.42;;;;;;;;;;5027466;28;20041;-88
2022/12/05 04:45:33;;;;;;;33.13;14.57;;;;;;;;;;5027216;28;20052;-88
2022/12/05 04:48:01;;;;;;;33.42;16.17;;;;;;;;;;5025372;28;20069;-87
2022/12/05 04:50:29;;;;;;;34.38;15.20;;;;;;;;;;5026696;28;20095;-87
2022/12/05 04:52:55;;;;;;;31.75;13.95;;;;;;;;;;5028084;28;20034;-87
2022/12/05 04:55:24;;;;;;;31.95;14.02;;;;;;;;;;5029002;28;20334;-86
2022/12/05 04:58:01;;;;;;;36.70;16.15;;;;;;;;;;5036741;28;20057;-86
2022/12/05 05:00:27;;;;;;;34.15;16.05;;;;;;;;;;5029195;28;20044;-87
2022/12/05 05:02:54;;;;;;;34.33;15.80;;;;;;;;;;5026595;28;20068;-87
2022/12/05 05:05:20;;;;;;;34.13;16.23;;;;;;;;;;5027558;28;20034;-87
2022/12/05 05:07:47;;;;;;;40.25;18.80;;;;;;;;;;5027058;28;20040;-87
2022/12/05 05:10:14;;;;;;;34.80;16.75;;;;;;;;;;5019940;28;20116;-87
2022/12/05 05:12:40;;;;;;;31.70;15.13;;;;;;;;;;5026847;28;20454;-87
2022/12/05 05:15:05;;;;;;;31.23;14.75;;;;;;;;;;5028619;28;20061;-87
2022/12/05 05:17:30;;;;;;;31.00;13.85;;;;;;;;;;5028184;28;20037;-87
2022/12/05 05:20:22;;;;;;;29.60;14.80;;;;;;;;;;5028132;28;20061;-87
2022/12/05 05:22:40;;;;;;;37.60;17.20;;;;;;;;;;5027879;28;20105;-87
2022/12/05 05:25:06;;;;;;;40.13;17.30;;;;;;;;;;5028225;28;20573;-87
2022/12/05 05:27:31;;;;;;;40.88;16.67;;;;;;;;;;5022177;28;20083;-87
2022/12/05 05:29:56;;;;;;;32.00;15.43;;;;;;;;;;5026776;28;20501;-87
2022/12/05 05:32:21;;;;;;;32.10;15.27;;;;;;;;;;5026329;28;20044;-87
2022/12/05 05:34:46;;;;;;;30.90;15.33;;;;;;;;;;5029114;28;20034;-87
2022/12/05 05:37:11;;;;;;;30.10;14.97;;;;;;;;;;5029540;28;20022;-85
2022/12/05 05:39:37;;;;;;;33.43;15.63;;;;;;;;;;5038403;28;20065;-85
2022/12/05 05:42:02;;;;;;;29.85;14.65;;;;;;;;;;5041340;28;20044;-85
2022/12/05 05:44:27;;;;;;;27.02;13.60;;;;;;;;;;5042359;28;20104;-85
2022/12/05 05:46:53;;;;;;;25.90;13.63;;;;;;;;;;5040810;28;20049;-85
2022/12/05 05:49:18;;;;;;;24.33;12.10;;;;;;;;;;5041411;28;20513;-86
2022/12/05 05:51:43;;;;;;;19.67;11.70;;;;;;;22.46;100.00;159588.97;5042240;28;20428;-85
2022/12/05 05:54:09;;;;;;;22.33;11.73;;;;;;;-145.26;100.00;87209.31;5041373;28;20316;-85
2022/12/05 05:56:34;;;;;;;22.95;11.88;;;;;;;22.38;82.39;53978.69;5041338;28;20684;-84
2022/12/05 05:59:01;;;;;;;23.38;12.65;;;;;;;;;;5041009;28;20037;-85
2022/12/05 06:01:26;;;;;;;20.27;10.95;;;;;;;;;;5039093;28;20037;-85
2022/12/05 06:03:52;;;;;;;22.42;11.25;;;;;;;;;;5041552;28;20109;-85
2022/12/05 06:06:17;;;;;;;24.27;12.68;;;;;;;;;;5039211;28;20049;-85
2022/12/05 06:08:43;;;;;;;34.67;16.10;;;;;;;;;;5040657;28;20042;-85
2022/12/05 06:11:13;;;;;;;30.73;15.90;;;;;;;;;;5041984;28;20029;-85
2022/12/05 06:13:39;;;;;;;33.47;15.00;;;;;;;;;;5039828;28;20088;-85
2022/12/05 06:16:07;;;;;;;35.05;16.77;;;;;;;;;;5051077;28;20045;-85
2022/12/05 06:18:32;;;;;;;35.17;16.08;;;;;;;;;;5046935;28;20030;-85
2022/12/05 06:20:58;;;;;;;32.65;15.57;;;;;;;;;;5045220;28;20033;-85
2022/12/05 06:23:24;;;;;;;24.90;13.93;;;;;;;;;;5045825;28;20053;-85
2022/12/05 06:25:50;;;;;;;27.17;13.65;;;;;;;;;;5044967;28;20045;-85
2022/12/05 06:28:15;;;;;;;25.65;13.52;;;;;;;;;;5044949;28;20074;-85
2022/12/05 06:30:40;;;;;;;25.60;13.88;;;;;;;;;;5039130;28;20485;-87
2022/12/05 06:33:06;;;;;;;27.73;14.10;;;;;;;;;;5030807;28;20054;-87
2022/12/05 06:35:31;;;;;;;30.27;15.33;;;;;;;;;;5044254;28;20427;-85
2022/12/05 06:37:56;;;;;;;29.30;14.70;;;;;;;;;;5042355;28;20044;-85
2022/12/05 06:40:21;;;;;;;26.30;13.17;;;;;;;;;;5044458;28;21343;-85
2022/12/05 06:42:46;;;;;;;23.13;12.07;;;;;;;;;;5042431;28;20311;-85
2022/12/05 06:45:12;;;;;;;26.67;13.27;;;;;;;;;;5041351;28;20273;-85
2022/12/05 06:47:37;;;;;;;26.30;13.37;;;;;;;;;;5042197;28;20057;-86
2022/12/05 06:50:02;;;;;;;27.77;13.30;;;;;;;;;;5042530;28;20045;-85
2022/12/05 06:52:28;;;;;;;28.77;14.68;;;;;;;;;;5040075;28;20041;-85
2022/12/05 06:54:54;;;;;;;30.13;13.90;;;;;;;;;;5041786;28;20466;-85
2022/12/05 06:57:19;;;;;;;33.20;16.08;;;;;;;;;;5040932;28;20029;-85
2022/12/05 06:59:44;;;;;;;37.43;16.23;;;;;;;;;;5039725;28;20413;-85
2022/12/05 07:02:11;;;;;;;34.13;15.77;;;;;;;;;;5039312;28;20029;-85
2022/12/05 07:04:36;;;;;;;37.53;17.25;;;;;;;;;;5038052;28;20037;-85
2022/12/05 07:07:01;;;;;;;36.97;16.77;;;;;;;;;;5039262;28;20037;-85
2022/12/05 07:09:44;;;;;;;33.35;15.90;;;;;;;;;;5039976;28;20315;-84
2022/12/05 07:12:10;;;;;;;37.17;17.30;;;;;;;;;;5036437;28;20033;-84
2022/12/05 07:14:35;;;;;;;33.28;16.10;;;;;;;;;;5036483;28;20030;-84
2022/12/05 07:17:00;;;;;;;36.50;17.57;;;;;;;;;;5034796;28;20444;-85
2022/12/05 07:19:26;;;;;;;35.57;17.30;;;;;;;;;;5035334;28;20040;-85
2022/12/05 07:21:51;;;;;;;33.80;16.27;;;;;;;;;;5037323;28;20040;-85
2022/12/05 07:24:16;;;;;;;39.83;18.73;;;;;;;;;;5035604;28;20660;-85
2022/12/05 07:26:41;;;;;;;38.97;18.13;;;;;;;;;;5036016;28;20052;-87
2022/12/05 07:29:07;;;;;;;32.63;17.20;;;;;;;;;;5037549;28;20064;-85
2022/12/05 07:31:32;;;;;;;42.00;19.38;;;;;;;;;;5037325;28;20117;-85
2022/12/05 07:33:58;;;;;;;35.65;18.05;;;;;;;;;;5038692;28;20101;-84
2022/12/05 07:36:23;;;;;;;33.15;16.92;;;;;;;;;;5037232;28;20855;-84
2022/12/05 07:38:53;;;;;;;36.25;17.63;;;;;;;;;;5041935;28;20040;-85
2022/12/05 07:41:20;;;;;;;37.45;17.23;;;;;;;;;;5042242;28;20087;-85
2022/12/05 07:43:45;;;;;;;35.00;16.67;;;;;;;;;;5041418;28;20250;-84
2022/12/05 07:46:10;;;;;;;35.57;16.87;;;;;;;;;;5039089;28;20040;-85
2022/12/05 07:48:35;;;;;;;36.72;17.67;;;;;;;;;;5039555;28;20033;-85
2022/12/05 07:51:02;;;;;;;37.38;18.20;;;;;;;;;;5038309;28;20112;-85
2022/12/05 07:53:28;;;;;;;34.83;17.30;;;;;;;;;;5038480;28;20034;-85
2022/12/05 07:55:53;;;;;;;30.77;16.10;;;;;;;;;;5038212;28;20041;-85
2022/12/05 07:58:18;;;;;;;35.03;17.08;;;;;;;;;;5038596;28;20129;-85
2022/12/05 08:00:45;;;;;;;37.03;17.83;;;;;;;;;;5039099;28;20132;-85
2022/12/05 08:03:10;;;;;;;36.50;18.43;;;;;;;;;;5037278;28;20068;-85
2022/12/05 08:05:36;;;;;;;35.50;17.80;;;;;;;;;;5040504;28;20120;-85
2022/12/05 08:08:01;;;;;;;35.65;18.42;;;;;;;;;;5039893;28;20284;-85
2022/12/05 08:10:26;;;;;;;34.77;17.80;;;;;;;;;;5039065;28;20038;-85
2022/12/05 08:12:52;;;;;;;36.40;17.53;;;;;;;;;;5040661;28;20280;-85
2022/12/05 08:15:17;;;;;;;33.43;15.80;;;;;;;;;;5039967;28;20362;-85
2022/12/05 08:17:42;;;;;;;33.22;16.92;;;;;;;;;;5040769;28;20759;-85
2022/12/05 08:20:08;;;;;;;33.87;17.87;;;;;;;;;;5040996;28;20063;-85
2022/12/05 08:22:33;;;;;;;33.17;16.92;;;;;;;;;;5039589;28;20573;-84
2022/12/05 08:24:58;;;;;;;34.23;17.27;;;;;;;;;;5041628;28;20030;-85
2022/12/05 08:27:23;;;;;;;38.43;19.27;;;;;;;;;;5039693;28;20416;-84
2022/12/05 08:29:48;;;;;;;44.90;20.23;;;;;;;;;;5038739;28;20045;-84
2022/12/05 08:32:14;;;;;;;37.20;17.93;;;;;;;;;;5040842;28;20049;-85
2022/12/05 08:34:39;;;;;;;45.53;21.30;;;;;;;;;;5038426;28;20272;-85
2022/12/05 08:37:04;;;;;;;46.63;20.53;;;;;;;;;;5039413;28;20269;-85
2022/12/05 08:39:30;;;;;;;38.00;19.45;;;;;;;;;;5034020;28;20041;-85
2022/12/05 08:41:56;;;;;;;40.20;19.35;;;;;;;;;;5030774;28;20033;-84
2022/12/05 08:44:21;;;;;;;35.58;18.67;;;;;;;;;;5030501;28;20048;-84
2022/12/05 08:46:48;;;;;;;41.33;19.58;;;;;;;;;;5035999;28;20692;-85
2022/12/05 08:49:13;;;;;;;35.00;18.33;;;;;;;;;;5037634;28;20460;-85
2022/12/05 08:51:39;;;;;;;30.67;15.55;;;;;;;;;;5038470;28;20125;-85
2022/12/05 08:54:04;;;;;;;32.80;17.13;;;;;;;;;;5038605;28;20068;-85
2022/12/05 08:56:29;;;;;;;31.00;15.95;;;;;;;;;;5039131;28;20076;-85
2022/12/05 08:58:55;;;;;;;32.63;17.30;;;;;;;;;;5039463;28;20044;-85
2022/12/05 09:01:20;;;;;;;32.90;17.08;;;;;;;;;;5039155;28;20044;-85
2022/12/05 09:03:46;;;;;;;33.05;16.90;;;;;;;;;;5038041;28;20103;-84
2022/12/05 09:06:11;;;;;;;30.85;16.38;;;;;;;;;;5036437;28;20041;-85
2022/12/05 09:08:37;;;;;;;27.47;15.00;;;;;;;;;;5035399;28;20064;-85
2022/12/05 09:11:06;;;;;;;28.02;14.63;;;;;;;;;;5037479;28;20053;-85
2022/12/05 09:13:32;;;;;;;26.13;13.85;;;;;;;;;;5036863;28;20053;-85
2022/12/05 09:15:57;;;;;;;30.63;16.10;;;;;;;;;;5039738;28;20041;-85
2022/12/05 09:18:22;;;;;;;32.70;17.73;;;;;;;4.21;nan;100312.06;5039475;28;20123;-85
2022/12/05 09:20:47;;;;;;;37.08;17.25;;;;;;;;;;5039283;28;20064;-85
2022/12/05 09:23:12;;;;;;;30.50;16.40;;;;;;;;;;5038925;28;20040;-85
2022/12/05 09:25:38;;;;;;;35.43;18.17;;;;;;;;;;5039614;28;20037;-85
2022/12/05 09:28:03;;;;;;;28.53;16.23;;;;;;;;;;5039640;28;20041;-85
2022/12/05 09:30:28;;;;;;;29.85;14.98;;;;;;;;;;5039670;28;20053;-85
2022/12/05 09:32:53;;;;;;;28.43;15.90;;;;;;;;;;5038471;28;20037;-85
2022/12/05 09:35:19;;;;;;;25.83;14.37;;;;;;;;;;5039723;28;20295;-85
2022/12/05 09:37:44;;;;;;;28.85;14.98;;;;;;;;;;5040000;28;20030;-84
2022/12/05 09:40:17;;;;;;;32.97;17.30;;;;;;;;;;5039540;28;20037;-85
2022/12/05 09:42:48;;;;;;;34.80;18.13;;;;;;;;;;5039349;28;20570;-85
2022/12/05 09:45:34;;;;;;;31.13;17.05;;;;;;;;;;5039997;28;20033;-84
2022/12/05 09:48:11;;;;;;;28.42;15.88;;;;;;;;;;5038419;28;20284;-85
2022/12/05 09:50:39;;;;;;;26.85;16.08;;;;;;;;;;5041800;28;20029;-85
2022/12/05 09:53:04;;;;;;;27.92;16.13;;;;;;;;;;5041242;28;20038;-84
2022/12/05 09:55:39;;;;;;;28.90;15.70;;;;;;;;;;5043701;28;20048;-85
2022/12/05 09:58:09;;;;;;;29.50;15.85;;;;;;;;;;5039990;28;20184;-84
2022/12/05 10:00:34;;;;;;;29.08;15.82;;;;;;;;;;5042424;28;20838;-85
2022/12/05 10:03:25;;;;;;;28.73;16.27;;;;;;;;;;5041763;28;20121;-86
2022/12/05 10:06:00;;;;;;;30.73;17.30;;;;;;;;;;5040117;28;20048;-85
2022/12/05 10:08:31;;;;;;;27.77;16.15;;;;;;;;;;5041217;28;20536;-85
2022/12/05 10:11:02;;;;;;;29.30;15.68;;;;;;;;;;5044248;28;20054;-85
2022/12/05 10:13:46;;;;;;;26.60;15.40;;;;;;;;;;5047068;28;20037;-85
2022/12/05 10:16:15;;;;;;;26.85;15.20;;;;;;;;;;5039314;28;20053;-85
2022/12/05 10:18:50;;;;;;;26.48;16.02;;;;;;;;;;5038556;28;20025;-84
2022/12/05 10:21:15;;;;;;;27.08;15.43;;;;;;;;;;5030055;28;20043;-85
2022/12/05 10:23:52;;;;;;;29.17;16.08;;;;;;;;;;5039898;28;20567;-85
2022/12/05 10:26:18;;;;;;;28.17;16.08;;;;;;;;;;5029551;28;20030;-84
2022/12/05 10:29:02;;;;;;;27.83;15.88;;;;;;;;;;5038484;28;20123;-86
2022/12/05 10:31:32;;;;;;;29.50;16.58;;;;;;;;;;5036974;28;20030;-84
2022/12/05 10:34:23;;;;;;;25.98;14.80;;;;;;;;;;5038904;28;20620;-84
2022/12/05 10:36:49;;;;;;;;;;;;;;;;;;5022862;28;20104;-85
2022/12/05 10:39:14;;;;;;;27.38;15.52;;;;;;;;;;5038480;28;19963;-85
2022/12/05 10:41:39;;;;;;;26.57;14.97;;;;;;;;;;5037030;28;20112;-85
2022/12/05 10:44:05;;;;;;;26.80;15.20;;;;;;;;;;5036921;28;20478;-85
2022/12/05 10:46:30;;;;;;;26.05;15.48;;;;;;;;;;5038592;28;20119;-84
2022/12/05 10:48:55;;;;;;;29.03;16.10;;;;;;;;;;5038049;28;20037;-85
2022/12/05 10:51:24;;;;;;;25.73;15.60;;;;;;;;;;5039030;28;20366;-84
2022/12/05 10:53:49;;;;;;;23.70;14.48;;;;;;;;;;5040605;28;20034;-85
2022/12/05 10:56:33;;;;;;;27.65;16.30;;;;;;;;;;5040232;28;20064;-84
2022/12/05 10:58:59;;;;;;;25.73;14.52;;;;;;;;;;5037983;28;20117;-84
2022/12/05 11:01:24;;;;;;;27.98;16.58;;;;;;;;;;5036819;28;20065;-84
2022/12/05 11:03:55;;;;;;;26.08;15.63;;;;;;;;;;5037166;28;20033;-85
2022/12/05 11:06:28;;;;;;;26.85;16.00;;;;;;;;;;5035849;28;20041;-84
2022/12/05 11:08:57;;;;;;;27.27;15.23;;;;;;;;;;5037340;28;20057;-84
2022/12/05 11:11:27;;;;;;;26.75;15.68;;;;;;;;;;5036144;28;20025;-84
2022/12/05 11:13:55;;;;;;;25.65;14.98;;;;;;;;;;5034862;28;20038;-85
2022/12/05 11:16:25;;;;;;;26.42;15.43;;;;;;;;;;5035004;28;20045;-85
2022/12/05 11:18:51;;;;;;;26.67;15.70;;;;;;;;;;5034735;28;20069;-84
2022/12/05 11:21:18;;;;;;;30.50;16.85;;;;;;;;;;5035532;28;20039;-84
2022/12/05 11:23:44;;;;;;;26.17;15.82;;;;;;;;;;5034772;28;20071;-84
2022/12/05 11:26:17;;;;;;;24.77;15.32;;;;;;;;;;5036234;28;20097;-84
2022/12/05 11:28:43;;;;;;;27.92;16.42;;;;;;;;;;5037405;28;20049;-85
2022/12/05 11:31:11;;;;;;;27.42;15.77;;;;;;;;;;5036380;28;20064;-83
2022/12/05 11:33:37;;;;;;;25.00;14.88;;;;;;;;;;5035238;28;20046;-85
2022/12/05 11:36:19;;;;;;;24.75;14.63;;;;;;;;;;5034550;28;20374;-84
2022/12/05 11:38:44;;;;;;;27.67;16.23;;;;;;;;;;5034021;28;20128;-85
2022/12/05 11:41:10;;;;;;;29.17;15.35;;;;;;;;;;5036479;28;20061;-85
2022/12/05 11:43:50;;;;;;;31.77;17.02;;;;;;;;;;5034509;28;20087;-84
2022/12/05 11:46:18;;;;;;;27.23;15.18;;;;;;;;;;5033608;28;20037;-85
2022/12/05 11:48:53;;;;;;;26.13;16.23;;;;;;;;;;5036765;28;20302;-84
2022/12/05 11:51:35;;;;;;;27.17;15.55;;;;;;;;;;5035282;28;20117;-85
2022/12/05 11:54:30;;;;;;;25.73;14.90;;;;;;;;;;5034894;28;20112;-84
2022/12/05 11:57:02;;;;;;;24.45;14.45;;;;;;;;;;5025773;28;20501;-85
2022/12/05 11:59:40;;;;;;;22.02;13.63;;;;;;;;;;5034593;28;20053;-85
2022/12/05 12:02:24;;;;;;;25.90;15.65;;;;;;;;;;5033552;28;20033;-85
2022/12/05 12:05:07;;;;;;;26.08;14.77;;;;;;;;;;5034051;28;20493;-84
2022/12/05 12:07:38;;;;;;;24.70;15.35;;;;;;;;;;5035265;28;20064;-85
2022/12/05 12:10:22;;;;;;;28.63;16.27;;;;;;;;;;5036715;28;20049;-85
2022/12/05 12:13:06;;;;;;;25.65;14.80;;;;;;;;;;5033349;28;20037;-84
2022/12/05 12:15:55;;;;;;;25.20;15.73;;;;;;;;;;5034664;28;20126;-84
2022/12/05 12:18:26;;;;;;;26.02;14.75;;;;;;;;;;5027605;28;20032;-85
2022/12/05 12:21:13;;;;;;;24.65;14.75;;;;;;;;;;5035271;28;20068;-85
2022/12/05 12:24:02;;;;;;;24.50;15.02;;;;;;;;;;5035845;28;20053;-85
2022/12/05 12:26:27;;;;;;;26.73;15.98;;;;;;;;;;5036376;28;20033;-84
2022/12/05 12:29:19;;;;;;;25.07;14.87;;;;;;;;;;5037459;28;20554;-85
2022/12/05 12:31:47;;;;;;;25.27;14.48;;;;;;;;;;5000378;28;20049;-84
2022/12/05 12:34:30;;;;;;;26.95;15.50;;;;;;;;;;5034069;28;20144;-84
2022/12/05 12:37:08;;;;;;;24.58;15.68;;;;;;;;;;5034780;28;20091;-85
2022/12/05 12:39:48;;;;;;;25.73;14.32;;;;;;;;;;5033455;28;20037;-84
2022/12/05 12:42:19;;;;;;;23.63;14.10;;;;;;;;;;5034134;28;20052;-84
2022/12/05 12:44:45;;;;;;;26.27;15.23;;;;;;;;;;5036174;28;20272;-84
2022/12/05 12:47:13;;;;;;;24.17;14.20;;;;;;;;;;5038617;28;20520;-85
2022/12/05 12:49:47;;;;;;;24.08;14.43;;;;;;;;;;5042398;28;20037;-85
2022/12/05 12:52:17;;;;;;;24.15;13.32;;;;;;;;;;5041750;28;20042;-84
2022/12/05 12:54:48;;;;;;;21.92;14.10;;;;;;;;;;5041788;28;20038;-85
2022/12/05 12:57:13;;;;;;;22.30;13.32;;;;;;;;;;5041536;28;20029;-85
2022/12/05 13:00:00;;;;;;;20.13;12.97;;;;;;;;;;5042446;28;20462;-85
2022/12/05 13:02:36;;;;;;;25.20;15.07;;;;;;;;;;5041636;28;20272;-84
2022/12/05 13:05:04;;;;;;;26.38;15.55;;;;;;;;;;5039802;28;20033;-85
2022/12/05 13:07:34;;;;;;;25.70;15.88;;;;;;;;;;5042316;28;20033;-85
2022/12/05 13:10:02;;;;;;;22.73;14.95;;;;;;;;;;5041581;28;20121;-84
2022/12/05 13:12:29;;;;;;;24.52;14.77;;;;;;;;;;5039598;28;20034;-85
2022/12/05 13:14:59;;;;;;;25.80;15.60;;;;;;;;;;5040833;28;20056;-85
2022/12/05 13:17:24;;;;;;;22.02;13.98;;;;;;;;;;5042322;28;20044;-85
2022/12/05 13:19:50;;;;;;;23.20;14.23;;;;;;;;;;5040784;28;20037;-85
2022/12/05 13:22:17;;;;;;;26.92;15.25;;;;;;;;;;5041470;28;20106;-85
2022/12/05 13:24:43;;;;;;;22.30;14.10;;;;;;;;;;5040792;28;20030;-85
2022/12/05 13:27:14;;;;;;;24.40;14.48;;;;;;;;;;5042471;28;20116;-85
2022/12/05 13:29:42;;;;;;;24.20;15.15;;;;;;;;;;5045437;28;20045;-85
2022/12/05 13:32:28;;;;;;;25.13;15.63;;;;;;;;;;5041822;28;20065;-85
2022/12/05 13:34:54;;;;;;;24.55;15.50;;;;;;;;;;5040126;28;20087;-85
2022/12/05 13:43:13;;;;;;;25.17;15.65;;;;;;;;;;5041997;28;20037;-85
2022/12/05 13:45:40;;;;;;;21.35;13.82;;;;;;;;;;5042643;28;20026;-85
2022/12/05 13:48:11;;;;;;;24.77;14.68;;;;;;;;;;5041144;28;20038;-85
2022/12/05 13:50:48;;;;;;;24.30;15.00;;;;;;;;;;5038665;28;20033;-85
2022/12/05 13:53:22;;;;;;;24.98;14.60;;;;;;;;;;5042201;28;20224;-85
2022/12/05 13:55:59;;;;;;;21.38;13.63;;;;;;;;;;5042099;28;20595;-85
2022/12/05 13:58:24;;;;;;;22.70;13.75;;;;;;;;;;5040586;28;20032;-85
2022/12/05 14:00:50;;;;;;;22.87;14.33;;;;;;;;;;5032332;28;20035;-85
2022/12/05 14:03:33;;;;;;;21.67;13.45;;;;;;;;;;5037909;28;20277;-84
2022/12/05 14:05:59;;;;;;;21.00;13.48;;;;;;;;;;5035898;28;20526;-86
2022/12/05 14:08:34;;;;;;;20.97;13.07;;;;;;;;;;5031613;28;20041;-87
2022/12/05 14:11:02;;;;;;;21.58;13.93;;;;;;;;;;5032069;28;20284;-86
2022/12/05 14:13:28;;;;;;;20.42;12.90;;;;;;;;;;5030514;28;20041;-86
2022/12/05 14:16:14;;;;;;;19.88;12.25;;;;;;;;;;5031964;28;20052;-86
2022/12/05 14:18:45;;;;;;;22.10;13.48;;;;;;;;;;5031828;28;20025;-86
2022/12/05 14:21:23;;;;;;;19.67;12.93;;;;;;;;;;5030265;28;20077;-87
2022/12/05 14:23:54;;;;;;;22.70;14.13;;;;;;;;;;5031781;28;20042;-86
2022/12/05 14:26:19;;;;;;;;;;;;;;;;;;5031983;28;20034;-86
2022/12/05 14:28:54;;;;;;;20.57;12.67;;;;;;;;;;5031658;28;20403;-87
2022/12/05 14:31:38;;;;;;;21.25;13.25;;;;;;;;;;5030146;28;20271;-87
2022/12/05 14:34:19;;;;;;;20.92;13.00;;;;;;;;;;5031244;28;20052;-87